sensor_id;sensor_type;location;lat;lon;timestamp;pressure;altitude;pressure_sealevel;temperature;humidity
57644;BME280;43474;46.510;6.686;2023-10-13T00:00:33;96803.91;;;14.18;100.00
57644;BME280;43474;46.510;6.686;2023-10-13T00:03:22;96780.13;;;13.89;100.00
57644;BME280;43474;46.510;6.686;2023-10-13T00:05:48;96772.56;;;13.81;100.00
57644;BME280;43474;46.510;6.686;2023-10-13T00:08:18;96770.63;;;13.77;100.00
57644;BME280;43474;46.510;6.686;2023-10-13T00:10:46;96783.47;;;13.80;100.00
57644;BME280;43474;46.510;6.686;2023-10-13T00:13:13;96752.31;;;13.58;100.00
57644;BME280;43474;46.510;6.686;2023-10-13T00:15:42;96758.19;;;13.60;100.00
57644;BME280;43474;46.510;6.686;2023-10-13T00:18:29;96728.88;;;13.38;100.00
57644;BME280;43474;46.510;6.686;2023-10-13T00:21:02;96732.03;;;13.35;100.00
57644;BME280;43474;46.510;6.686;2023-10-13T00:23:46;96737.22;;;13.47;100.00
57644;BME280;43474;46.510;6.686;2023-10-13T00:26:27;96739.22;;;13.57;100.00
57644;BME280;43474;46.510;6.686;2023-10-13T00:28:58;96798.44;;;13.86;100.00
57644;BME280;43474;46.510;6.686;2023-10-13T00:31:26;96782.59;;;13.74;100.00
57644;BME280;43474;46.510;6.686;2023-10-13T00:33:58;96796.78;;;13.80;100.00
57644;BME280;43474;46.510;6.686;2023-10-13T00:36:35;96764.25;;;13.56;100.00
57644;BME280;43474;46.510;6.686;2023-10-13T00:39:01;96790.47;;;13.64;100.00
57644;BME280;43474;46.510;6.686;2023-10-13T00:41:29;96765.25;;;13.50;100.00
57644;BME280;43474;46.510;6.686;2023-10-13T00:44:13;96773.34;;;13.60;100.00
57644;BME280;43474;46.510;6.686;2023-10-13T00:46:41;96789.16;;;13.66;100.00
57644;BME280;43474;46.510;6.686;2023-10-13T00:49:11;96793.50;;;13.73;100.00
57644;BME280;43474;46.510;6.686;2023-10-13T00:51:42;96779.56;;;13.65;99.42
57644;BME280;43474;46.510;6.686;2023-10-13T00:54:13;96753.53;;;13.51;98.66
57644;BME280;43474;46.510;6.686;2023-10-13T00:56:40;96766.91;;;13.56;100.00
57644;BME280;43474;46.510;6.686;2023-10-13T00:59:17;96793.13;;;13.64;100.00
57644;BME280;43474;46.510;6.686;2023-10-13T01:01:43;96787.88;;;13.52;99.69
57644;BME280;43474;46.510;6.686;2023-10-13T01:04:10;96794.59;;;13.55;100.00
57644;BME280;43474;46.510;6.686;2023-10-13T01:06:39;96734.94;;;13.17;100.00
57644;BME280;43474;46.510;6.686;2023-10-13T01:09:07;96750.53;;;13.25;100.00
57644;BME280;43474;46.510;6.686;2023-10-13T01:11:40;96771.97;;;13.35;100.00
57644;BME280;43474;46.510;6.686;2023-10-13T01:14:09;96747.22;;;13.18;100.00
57644;BME280;43474;46.510;6.686;2023-10-13T01:16:37;96786.81;;;13.31;100.00
57644;BME280;43474;46.510;6.686;2023-10-13T01:19:13;96748.09;;;13.07;100.00
57644;BME280;43474;46.510;6.686;2023-10-13T01:21:43;96735.16;;;12.93;100.00
57644;BME280;43474;46.510;6.686;2023-10-13T01:24:13;96747.41;;;12.94;100.00
57644;BME280;43474;46.510;6.686;2023-10-13T01:26:44;96782.63;;;13.18;100.00
57644;BME280;43474;46.510;6.686;2023-10-13T01:29:10;96762.63;;;12.99;100.00
57644;BME280;43474;46.510;6.686;2023-10-13T01:31:44;96717.03;;;12.74;100.00
57644;BME280;43474;46.510;6.686;2023-10-13T01:34:18;96779.38;;;13.16;100.00
57644;BME280;43474;46.510;6.686;2023-10-13T01:36:51;96717.56;;;12.76;100.00
57644;BME280;43474;46.510;6.686;2023-10-13T01:39:18;96719.84;;;12.84;100.00
57644;BME280;43474;46.510;6.686;2023-10-13T01:41:45;96749.72;;;13.08;100.00
57644;BME280;43474;46.510;6.686;2023-10-13T01:44:11;96727.47;;;12.97;100.00
57644;BME280;43474;46.510;6.686;2023-10-13T01:46:42;96748.50;;;13.15;100.00
57644;BME280;43474;46.510;6.686;2023-10-13T01:49:08;96735.38;;;13.09;100.00
57644;BME280;43474;46.510;6.686;2023-10-13T01:51:34;96763.59;;;13.27;100.00
57644;BME280;43474;46.510;6.686;2023-10-13T01:54:00;96712.88;;;13.00;100.00
57644;BME280;43474;46.510;6.686;2023-10-13T01:56:28;96702.81;;;12.85;100.00
57644;BME280;43474;46.510;6.686;2023-10-13T01:58:56;96755.31;;;13.23;100.00
57644;BME280;43474;46.510;6.686;2023-10-13T02:01:22;96699.91;;;12.86;100.00
57644;BME280;43474;46.510;6.686;2023-10-13T02:03:57;96698.56;;;12.84;100.00
57644;BME280;43474;46.510;6.686;2023-10-13T02:06:30;96692.84;;;12.75;100.00
57644;BME280;43474;46.510;6.686;2023-10-13T02:09:00;96715.00;;;12.81;100.00
57644;BME280;43474;46.510;6.686;2023-10-13T02:11:42;96732.72;;;12.92;100.00
57644;BME280;43474;46.510;6.686;2023-10-13T02:14:11;96764.06;;;13.07;100.00
57644;BME280;43474;46.510;6.686;2023-10-13T02:16:38;96743.44;;;12.97;100.00
57644;BME280;43474;46.510;6.686;2023-10-13T02:19:04;96757.59;;;13.03;100.00
57644;BME280;43474;46.510;6.686;2023-10-13T02:21:31;96728.84;;;12.83;100.00
57644;BME280;43474;46.510;6.686;2023-10-13T02:23:58;96756.59;;;13.04;100.00
57644;BME280;43474;46.510;6.686;2023-10-13T02:26:30;96757.59;;;13.03;100.00
57644;BME280;43474;46.510;6.686;2023-10-13T02:29:00;96769.88;;;13.04;100.00
57644;BME280;43474;46.510;6.686;2023-10-13T02:31:29;96722.66;;;12.77;100.00
57644;BME280;43474;46.510;6.686;2023-10-13T02:33:55;96722.06;;;12.92;100.00
57644;BME280;43474;46.510;6.686;2023-10-13T02:36:21;96744.69;;;13.11;100.00
57644;BME280;43474;46.510;6.686;2023-10-13T02:39:03;96750.59;;;13.13;100.00
57644;BME280;43474;46.510;6.686;2023-10-13T02:41:34;96750.09;;;13.16;100.00
57644;BME280;43474;46.510;6.686;2023-10-13T02:44:03;96747.22;;;13.18;100.00
57644;BME280;43474;46.510;6.686;2023-10-13T02:46:34;96691.47;;;12.89;100.00
57644;BME280;43474;46.510;6.686;2023-10-13T02:49:06;96692.19;;;12.85;100.00
57644;BME280;43474;46.510;6.686;2023-10-13T02:51:39;96744.22;;;13.14;100.00
57644;BME280;43474;46.510;6.686;2023-10-13T02:54:08;96740.53;;;12.99;100.00
57644;BME280;43474;46.510;6.686;2023-10-13T02:56:59;96719.03;;;12.66;100.00
57644;BME280;43474;46.510;6.686;2023-10-13T02:59:31;96690.69;;;12.38;100.00
57644;BME280;43474;46.510;6.686;2023-10-13T03:02:01;96726.03;;;12.56;100.00
57644;BME280;43474;46.510;6.686;2023-10-13T03:04:32;96705.75;;;12.50;100.00
57644;BME280;43474;46.510;6.686;2023-10-13T03:06:58;96705.75;;;12.50;100.00
57644;BME280;43474;46.510;6.686;2023-10-13T03:09:25;96697.19;;;12.48;100.00
57644;BME280;43474;46.510;6.686;2023-10-13T03:11:51;96712.91;;;12.66;100.00
57644;BME280;43474;46.510;6.686;2023-10-13T03:14:23;96735.53;;;12.85;100.00
57644;BME280;43474;46.510;6.686;2023-10-13T03:16:54;96692.69;;;12.65;100.00
57644;BME280;43474;46.510;6.686;2023-10-13T03:19:20;96728.38;;;12.86;100.00
57644;BME280;43474;46.510;6.686;2023-10-13T03:21:46;96727.31;;;12.87;100.00
57644;BME280;43474;46.510;6.686;2023-10-13T03:24:22;96726.28;;;12.88;100.00
57644;BME280;43474;46.510;6.686;2023-10-13T03:27:00;96716.28;;;12.95;100.00
57644;BME280;43474;46.510;6.686;2023-10-13T03:29:38;96719.00;;;13.00;100.00
57644;BME280;43474;46.510;6.686;2023-10-13T03:32:11;96691.06;;;12.81;100.00
57644;BME280;43474;46.510;6.686;2023-10-13T03:34:43;96681.72;;;12.78;100.00
57644;BME280;43474;46.510;6.686;2023-10-13T03:37:35;96682.94;;;12.71;100.00
57644;BME280;43474;46.510;6.686;2023-10-13T03:40:11;96669.56;;;12.65;99.63
57644;BME280;43474;46.510;6.686;2023-10-13T03:42:50;96684.06;;;12.58;98.20
57644;BME280;43474;46.510;6.686;2023-10-13T03:45:36;96702.50;;;12.81;95.81
57644;BME280;43474;46.510;6.686;2023-10-13T03:48:13;96700.09;;;12.80;99.73
57644;BME280;43474;46.510;6.686;2023-10-13T03:50:58;96662.34;;;12.44;99.74
57644;BME280;43474;46.510;6.686;2023-10-13T03:53:32;96681.16;;;12.42;100.00
57644;BME280;43474;46.510;6.686;2023-10-13T03:56:05;96662.16;;;12.17;100.00
57644;BME280;43474;46.510;6.686;2023-10-13T03:58:38;96692.22;;;12.34;100.00
57644;BME280;43474;46.510;6.686;2023-10-13T04:01:22;96687.13;;;12.33;100.00
57644;BME280;43474;46.510;6.686;2023-10-13T04:04:00;96644.84;;;12.14;100.00
57644;BME280;43474;46.510;6.686;2023-10-13T04:06:31;96650.06;;;12.09;100.00
57644;BME280;43474;46.510;6.686;2023-10-13T04:09:20;96617.41;;;11.80;100.00
57644;BME280;43474;46.510;6.686;2023-10-13T04:12:05;96668.19;;;12.12;100.00
57644;BME280;43474;46.510;6.686;2023-10-13T04:14:39;96677.88;;;12.19;100.00
57644;BME280;43474;46.510;6.686;2023-10-13T04:17:24;96669.41;;;12.22;100.00
57644;BME280;43474;46.510;6.686;2023-10-13T04:19:59;96677.69;;;12.25;100.00
57644;BME280;43474;46.510;6.686;2023-10-13T04:22:42;96641.03;;;11.94;100.00
57644;BME280;43474;46.510;6.686;2023-10-13T04:25:17;96676.56;;;12.21;100.00
57644;BME280;43474;46.510;6.686;2023-10-13T04:28:02;96652.94;;;12.08;100.00
57644;BME280;43474;46.510;6.686;2023-10-13T04:30:56;96663.44;;;12.14;100.00
57644;BME280;43474;46.510;6.686;2023-10-13T04:38:52;96663.53;;;12.36;100.00
57644;BME280;43474;46.510;6.686;2023-10-13T04:41:34;96679.22;;;12.38;100.00
57644;BME280;43474;46.510;6.686;2023-10-13T04:44:24;96664.75;;;12.29;100.00
57644;BME280;43474;46.510;6.686;2023-10-13T04:46:57;96667.41;;;12.29;100.00
57644;BME280;43474;46.510;6.686;2023-10-13T04:49:27;96670.78;;;12.41;100.00
57644;BME280;43474;46.510;6.686;2023-10-13T04:52:01;96646.28;;;12.22;100.00
57644;BME280;43474;46.510;6.686;2023-10-13T04:54:38;96681.16;;;12.42;100.00
57644;BME280;43474;46.510;6.686;2023-10-13T04:57:23;96685.50;;;12.32;100.00
57644;BME280;43474;46.510;6.686;2023-10-13T05:00:13;96670.19;;;12.22;100.00
57644;BME280;43474;46.510;6.686;2023-10-13T05:02:43;96681.31;;;12.19;100.00
57644;BME280;43474;46.510;6.686;2023-10-13T05:05:22;96674.53;;;12.11;100.00
57644;BME280;43474;46.510;6.686;2023-10-13T05:07:50;96678.66;;;12.19;100.00
57644;BME280;43474;46.510;6.686;2023-10-13T05:10:36;96667.97;;;12.14;100.00
57644;BME280;43474;46.510;6.686;2023-10-13T05:13:20;96654.09;;;12.12;100.00
57644;BME280;43474;46.510;6.686;2023-10-13T05:16:05;96675.13;;;12.13;100.00
57644;BME280;43474;46.510;6.686;2023-10-13T05:18:49;96667.06;;;12.08;100.00
57644;BME280;43474;46.510;6.686;2023-10-13T05:21:33;96664.63;;;12.07;100.00
57644;BME280;43474;46.510;6.686;2023-10-13T05:24:17;96671.72;;;12.18;100.00
57644;BME280;43474;46.510;6.686;2023-10-13T05:27:01;96676.00;;;12.19;100.00
57644;BME280;43474;46.510;6.686;2023-10-13T05:29:47;96653.38;;;12.16;100.00
57644;BME280;43474;46.510;6.686;2023-10-13T05:32:32;96649.56;;;12.12;100.00
57644;BME280;43474;46.510;6.686;2023-10-13T05:35:16;96683.66;;;12.32;100.00
57644;BME280;43474;46.510;6.686;2023-10-13T05:38:01;96682.53;;;12.28;100.00
57644;BME280;43474;46.510;6.686;2023-10-13T05:41:11;96679.47;;;12.20;100.00
57644;BME280;43474;46.510;6.686;2023-10-13T05:43:56;96683.81;;;12.26;100.00
57644;BME280;43474;46.510;6.686;2023-10-13T05:46:40;96675.13;;;12.13;100.00
57644;BME280;43474;46.510;6.686;2023-10-13T05:49:15;96654.63;;;11.97;100.00
57644;BME280;43474;46.510;6.686;2023-10-13T05:51:41;96655.53;;;12.03;100.00
57644;BME280;43474;46.510;6.686;2023-10-13T05:54:07;96663.81;;;12.06;100.00
57644;BME280;43474;46.510;6.686;2023-10-13T05:56:35;96644.72;;;11.93;100.00
57644;BME280;43474;46.510;6.686;2023-10-13T05:59:20;96661.56;;;11.98;100.00
57644;BME280;43474;46.510;6.686;2023-10-13T06:02:04;96692.50;;;12.21;100.00
57644;BME280;43474;46.510;6.686;2023-10-13T06:04:49;96686.84;;;12.18;100.00
57644;BME280;43474;46.510;6.686;2023-10-13T06:07:33;96691.38;;;12.17;100.00
57644;BME280;43474;46.510;6.686;2023-10-13T06:10:17;96696.78;;;12.22;100.00
57644;BME280;43474;46.510;6.686;2023-10-13T06:13:01;96681.47;;;12.12;100.00
57644;BME280;43474;46.510;6.686;2023-10-13T06:15:46;96703.56;;;12.30;100.00
57644;BME280;43474;46.510;6.686;2023-10-13T06:18:30;96690.19;;;12.25;100.00
57644;BME280;43474;46.510;6.686;2023-10-13T06:21:14;96701.78;;;12.35;100.00
57644;BME280;43474;46.510;6.686;2023-10-13T06:23:59;96697.03;;;12.37;100.00
57644;BME280;43474;46.510;6.686;2023-10-13T06:26:43;96711.53;;;12.47;100.00
57644;BME280;43474;46.510;6.686;2023-10-13T06:29:27;96693.97;;;12.46;100.00
57644;BME280;43474;46.510;6.686;2023-10-13T06:31:53;96679.47;;;12.36;100.00
57644;BME280;43474;46.510;6.686;2023-10-13T06:34:22;96713.56;;;12.56;100.00
57644;BME280;43474;46.510;6.686;2023-10-13T06:37:06;96711.78;;;12.62;100.00
57644;BME280;43474;46.510;6.686;2023-10-13T06:39:49;96687.13;;;12.50;100.00
57644;BME280;43474;46.510;6.686;2023-10-13T06:42:15;96657.56;;;12.29;100.00
57644;BME280;43474;46.510;6.686;2023-10-13T06:44:42;96669.19;;;12.40;100.00
57644;BME280;43474;46.510;6.686;2023-10-13T06:47:12;96696.69;;;12.67;100.00
57644;BME280;43474;46.510;6.686;2023-10-13T06:49:41;96713.72;;;12.83;100.00
57644;BME280;43474;46.510;6.686;2023-10-13T06:52:09;96690.38;;;12.68;100.00
57644;BME280;43474;46.510;6.686;2023-10-13T06:54:36;96707.78;;;13.15;100.00
57644;BME280;43474;46.510;6.686;2023-10-13T06:57:05;96662.94;;;13.07;100.00
57644;BME280;43474;46.510;6.686;2023-10-13T06:59:35;96729.31;;;13.52;100.00
57644;BME280;43474;46.510;6.686;2023-10-13T07:02:04;96725.84;;;13.52;100.00
57644;BME280;43474;46.510;6.686;2023-10-13T07:04:32;96728.34;;;13.58;100.00
57644;BME280;43474;46.510;6.686;2023-10-13T07:07:04;96698.19;;;13.53;100.00
57644;BME280;43474;46.510;6.686;2023-10-13T07:09:33;96685.09;;;13.73;100.00
57644;BME280;43474;46.510;6.686;2023-10-13T07:12:03;96713.13;;;14.03;100.00
57644;BME280;43474;46.510;6.686;2023-10-13T07:14:32;96660.81;;;13.69;100.00
57644;BME280;43474;46.510;6.686;2023-10-13T07:17:05;96669.91;;;14.28;94.53
57644;BME280;43474;46.510;6.686;2023-10-13T07:19:33;96683.88;;;14.67;93.50
57644;BME280;43474;46.510;6.686;2023-10-13T07:22:01;96712.94;;;15.11;100.00
57644;BME280;43474;46.510;6.686;2023-10-13T07:24:45;96665.25;;;15.24;89.61
57644;BME280;43474;46.510;6.686;2023-10-13T07:27:21;96685.00;;;15.86;88.32
57644;BME280;43474;46.510;6.686;2023-10-13T07:29:55;96683.47;;;16.16;90.45
57644;BME280;43474;46.510;6.686;2023-10-13T07:32:43;96720.19;;;16.82;83.50
57644;BME280;43474;46.510;6.686;2023-10-13T07:35:12;96708.31;;;17.28;82.87
57644;BME280;43474;46.510;6.686;2023-10-13T07:37:42;96717.00;;;17.85;83.66
57644;BME280;43474;46.510;6.686;2023-10-13T07:40:08;96693.72;;;18.20;82.55
57644;BME280;43474;46.510;6.686;2023-10-13T07:42:55;96678.06;;;18.76;73.54
57644;BME280;43474;46.510;6.686;2023-10-13T07:45:36;96671.94;;;19.24;76.02
57644;BME280;43474;46.510;6.686;2023-10-13T07:48:07;96682.25;;;19.65;75.80
57644;BME280;43474;46.510;6.686;2023-10-13T07:50:41;96667.81;;;19.55;76.02
57644;BME280;43474;46.510;6.686;2023-10-13T07:53:08;96704.53;;;19.89;74.74
57644;BME280;43474;46.510;6.686;2023-10-13T07:55:50;96680.50;;;19.74;78.83
57644;BME280;43474;46.510;6.686;2023-10-13T07:58:28;96682.97;;;19.94;73.98
57644;BME280;43474;46.510;6.686;2023-10-13T08:00:54;96691.31;;;20.11;71.49
57644;BME280;43474;46.510;6.686;2023-10-13T08:03:33;96694.78;;;20.12;73.14
57644;BME280;43474;46.510;6.686;2023-10-13T08:06:12;96703.22;;;20.62;71.35
57644;BME280;43474;46.510;6.686;2023-10-13T08:08:39;96697.91;;;20.38;67.29
57644;BME280;43474;46.510;6.686;2023-10-13T08:11:11;96691.66;;;20.61;68.87
57644;BME280;43474;46.510;6.686;2023-10-13T08:13:46;96723.25;;;21.21;65.50
57644;BME280;43474;46.510;6.686;2023-10-13T08:16:15;96732.16;;;20.89;61.15
57644;BME280;43474;46.510;6.686;2023-10-13T08:18:52;96722.84;;;21.28;64.17
57644;BME280;43474;46.510;6.686;2023-10-13T08:21:19;96693.91;;;21.20;62.97
57644;BME280;43474;46.510;6.686;2023-10-13T08:23:51;96707.75;;;20.99;62.50
57644;BME280;43474;46.510;6.686;2023-10-13T08:26:24;96687.06;;;20.95;62.29
57644;BME280;43474;46.510;6.686;2023-10-13T08:29:13;96689.09;;;21.16;61.03
57644;BME280;43474;46.510;6.686;2023-10-13T08:31:59;96666.84;;;21.11;56.69
57644;BME280;43474;46.510;6.686;2023-10-13T08:34:40;96701.38;;;21.23;60.23
57644;BME280;43474;46.510;6.686;2023-10-13T08:37:26;96713.94;;;21.74;58.49
57644;BME280;43474;46.510;6.686;2023-10-13T08:39:57;96683.78;;;21.44;59.63
57644;BME280;43474;46.510;6.686;2023-10-13T08:42:34;96685.34;;;21.73;58.38
57644;BME280;43474;46.510;6.686;2023-10-13T08:47:35;96670.66;;;21.79;59.51
57644;BME280;43474;46.510;6.686;2023-10-13T08:50:03;96679.31;;;22.03;57.23
57644;BME280;43474;46.510;6.686;2023-10-13T08:52:58;96656.91;;;22.16;59.04
57644;BME280;43474;46.510;6.686;2023-10-13T08:55:27;96661.69;;;22.42;60.17
57644;BME280;43474;46.510;6.686;2023-10-13T08:58:14;96660.13;;;22.41;61.37
57644;BME280;43474;46.510;6.686;2023-10-13T09:00:42;96640.53;;;22.35;64.10
57644;BME280;43474;46.510;6.686;2023-10-13T09:03:39;96697.16;;;23.08;66.96
57644;BME280;43474;46.510;6.686;2023-10-13T09:06:07;96685.88;;;23.14;64.28
57644;BME280;43474;46.510;6.686;2023-10-13T09:08:40;96655.69;;;22.90;65.01
57644;BME280;43474;46.510;6.686;2023-10-13T09:11:25;96665.34;;;23.13;66.17
57644;BME280;43474;46.510;6.686;2023-10-13T09:13:52;96641.31;;;23.43;65.03
57644;BME280;43474;46.510;6.686;2023-10-13T09:16:18;96685.94;;;23.71;63.07
57644;BME280;43474;46.510;6.686;2023-10-13T09:19:06;96693.81;;;23.99;64.00
57644;BME280;43474;46.510;6.686;2023-10-13T09:21:39;96673.09;;;23.77;61.25
57644;BME280;43474;46.510;6.686;2023-10-13T09:24:19;96689.66;;;23.84;63.84
57644;BME280;43474;46.510;6.686;2023-10-13T09:26:58;96643.84;;;23.57;61.62
57644;BME280;43474;46.510;6.686;2023-10-13T09:29:26;96638.09;;;23.32;62.99
57644;BME280;43474;46.510;6.686;2023-10-13T09:32:02;96642.19;;;23.87;64.73
57644;BME280;43474;46.510;6.686;2023-10-13T09:34:29;96643.84;;;23.57;62.57
57644;BME280;43474;46.510;6.686;2023-10-13T09:37:00;96670.41;;;23.94;62.83
57644;BME280;43474;46.510;6.686;2023-10-13T09:39:28;96645.84;;;23.73;66.16
57644;BME280;43474;46.510;6.686;2023-10-13T09:42:18;96662.47;;;24.24;63.46
57644;BME280;43474;46.510;6.686;2023-10-13T09:44:45;96662.94;;;24.69;62.78
57644;BME280;43474;46.510;6.686;2023-10-13T09:47:22;96646.34;;;24.80;63.21
57644;BME280;43474;46.510;6.686;2023-10-13T09:50:04;96637.69;;;25.12;60.43
57644;BME280;43474;46.510;6.686;2023-10-13T09:52:41;96656.16;;;25.19;57.89
57644;BME280;43474;46.510;6.686;2023-10-13T09:55:17;96677.06;;;25.01;60.22
57644;BME280;43474;46.510;6.686;2023-10-13T09:58:01;96622.84;;;25.10;56.40
57644;BME280;43474;46.510;6.686;2023-10-13T10:00:42;96616.75;;;25.04;57.43
57644;BME280;43474;46.510;6.686;2023-10-13T10:03:16;96615.34;;;24.98;56.48
57644;BME280;43474;46.510;6.686;2023-10-13T10:06:03;96612.91;;;24.67;59.33
57644;BME280;43474;46.510;6.686;2023-10-13T10:08:32;96626.22;;;25.07;57.73
57644;BME280;43474;46.510;6.686;2023-10-13T10:16:45;96636.41;;;25.10;58.06
57644;BME280;43474;46.510;6.686;2023-10-13T10:19:17;96613.78;;;24.88;60.54
57644;BME280;43474;46.510;6.686;2023-10-13T10:21:44;96630.78;;;25.53;50.73
57644;BME280;43474;46.510;6.686;2023-10-13T10:24:20;96620.88;;;25.57;58.82
57644;BME280;43474;46.510;6.686;2023-10-13T10:26:56;96590.97;;;25.36;58.51
57644;BME280;43474;46.510;6.686;2023-10-13T10:29:30;96592.06;;;25.35;58.09
57644;BME280;43474;46.510;6.686;2023-10-13T10:32:00;96595.53;;;25.06;57.92
57644;BME280;43474;46.510;6.686;2023-10-13T10:34:42;96601.34;;;25.34;58.60
57644;BME280;43474;46.510;6.686;2023-10-13T10:37:09;96589.69;;;25.63;57.88
57644;BME280;43474;46.510;6.686;2023-10-13T10:39:36;96587.38;;;25.74;56.24
57644;BME280;43474;46.510;6.686;2023-10-13T10:42:12;96592.19;;;25.77;55.51
57644;BME280;43474;46.510;6.686;2023-10-13T10:44:43;96579.53;;;25.81;55.19
57644;BME280;43474;46.510;6.686;2023-10-13T10:47:16;96577.59;;;25.31;44.63
57644;BME280;43474;46.510;6.686;2023-10-13T10:50:04;96581.50;;;25.72;49.05
57644;BME280;43474;46.510;6.686;2023-10-13T10:52:34;96619.94;;;25.83;53.13
57644;BME280;43474;46.510;6.686;2023-10-13T10:55:03;96565.69;;;25.44;53.18
57644;BME280;43474;46.510;6.686;2023-10-13T10:57:33;96575.25;;;26.01;46.11
57644;BME280;43474;46.510;6.686;2023-10-13T11:00:04;96586.94;;;26.14;37.84
57644;BME280;43474;46.510;6.686;2023-10-13T11:02:41;96569.97;;;26.17;38.06
57644;BME280;43474;46.510;6.686;2023-10-13T11:05:08;96547.56;;;26.20;42.33
57644;BME280;43474;46.510;6.686;2023-10-13T11:07:45;96582.84;;;26.08;37.82
57644;BME280;43474;46.510;6.686;2023-10-13T11:10:12;96561.09;;;26.08;45.31
57644;BME280;43474;46.510;6.686;2023-10-13T11:12:59;96552.91;;;26.28;45.50
57644;BME280;43474;46.510;6.686;2023-10-13T11:15:44;96555.84;;;26.23;36.31
57644;BME280;43474;46.510;6.686;2023-10-13T11:18:14;96533.03;;;26.37;48.38
57644;BME280;43474;46.510;6.686;2023-10-13T11:20:49;96529.22;;;26.50;45.76
57644;BME280;43474;46.510;6.686;2023-10-13T11:23:24;96532.19;;;26.57;43.34
57644;BME280;43474;46.510;6.686;2023-10-13T11:25:58;96549.91;;;26.75;40.02
57644;BME280;43474;46.510;6.686;2023-10-13T11:28:31;96537.50;;;26.53;42.50
57644;BME280;43474;46.510;6.686;2023-10-13T11:31:01;96517.25;;;26.63;38.53
57644;BME280;43474;46.510;6.686;2023-10-13T11:33:43;96522.78;;;26.42;40.16
57644;BME280;43474;46.510;6.686;2023-10-13T11:36:12;96543.69;;;26.87;43.72
57644;BME280;43474;46.510;6.686;2023-10-13T11:38:48;96533.78;;;26.58;40.26
57644;BME280;43474;46.510;6.686;2023-10-13T11:41:16;96536.75;;;26.90;42.68
57644;BME280;43474;46.510;6.686;2023-10-13T11:43:45;96530.91;;;26.42;45.49
57644;BME280;43474;46.510;6.686;2023-10-13T11:46:15;96542.22;;;26.11;41.83
57644;BME280;43474;46.510;6.686;2023-10-13T11:48:48;96534.88;;;26.12;42.64
57644;BME280;43474;46.510;6.686;2023-10-13T11:51:20;96492.75;;;25.64;42.54
57644;BME280;43474;46.510;6.686;2023-10-13T11:53:57;96510.91;;;25.93;44.07
57644;BME280;43474;46.510;6.686;2023-10-13T11:56:24;96484.56;;;26.26;42.71
57644;BME280;43474;46.510;6.686;2023-10-13T11:58:51;96505.78;;;26.12;40.12
57644;BME280;43474;46.510;6.686;2023-10-13T12:01:17;96482.63;;;25.73;40.02
57644;BME280;43474;46.510;6.686;2023-10-13T12:03:44;96482.84;;;26.22;39.34
57644;BME280;43474;46.510;6.686;2023-10-13T12:06:31;96531.09;;;26.37;39.50
57644;BME280;43474;46.510;6.686;2023-10-13T12:09:07;96508.69;;;26.40;40.02
57644;BME280;43474;46.510;6.686;2023-10-13T12:11:47;96496.31;;;26.30;36.32
57644;BME280;43474;46.510;6.686;2023-10-13T12:14:18;96519.72;;;26.11;37.76
57644;BME280;43474;46.510;6.686;2023-10-13T12:17:03;96492.56;;;26.23;40.36
57644;BME280;43474;46.510;6.686;2023-10-13T12:19:30;96476.88;;;26.41;39.70
57644;BME280;43474;46.510;6.686;2023-10-13T12:21:57;96511.16;;;26.33;39.78
57644;BME280;43474;46.510;6.686;2023-10-13T12:24:24;96469.41;;;25.92;39.85
57644;BME280;43474;46.510;6.686;2023-10-13T12:27:03;96499.09;;;26.10;41.20
57644;BME280;43474;46.510;6.686;2023-10-13T12:29:47;96482.25;;;26.16;40.97
57644;BME280;43474;46.510;6.686;2023-10-13T12:32:14;96492.13;;;26.33;40.79
57644;BME280;43474;46.510;6.686;2023-10-13T12:34:41;96471.03;;;25.85;40.18
57644;BME280;43474;46.510;6.686;2023-10-13T12:37:32;96463.41;;;25.99;40.88
57644;BME280;43474;46.510;6.686;2023-10-13T12:40:08;96463.66;;;26.06;39.53
57644;BME280;43474;46.510;6.686;2023-10-13T12:42:53;96464.53;;;26.31;40.68
57644;BME280;43474;46.510;6.686;2023-10-13T12:45:39;96457.66;;;26.46;40.27
57644;BME280;43474;46.510;6.686;2023-10-13T12:48:23;96449.00;;;26.32;40.64
57644;BME280;43474;46.510;6.686;2023-10-13T12:51:07;96441.81;;;26.15;41.31
57644;BME280;43474;46.510;6.686;2023-10-13T12:53:52;96430.09;;;26.23;40.66
57644;BME280;43474;46.510;6.686;2023-10-13T12:56:18;96431.47;;;25.84;42.32
57644;BME280;43474;46.510;6.686;2023-10-13T12:58:55;96413.06;;;26.01;46.00
57644;BME280;43474;46.510;6.686;2023-10-13T13:01:25;96408.88;;;25.92;42.62
57644;BME280;43474;46.510;6.686;2023-10-13T13:03:58;96454.88;;;26.21;45.25
57644;BME280;43474;46.510;6.686;2023-10-13T13:06:25;96400.19;;;26.11;43.15
57644;BME280;43474;46.510;6.686;2023-10-13T13:08:56;96426.34;;;26.27;42.66
57644;BME280;43474;46.510;6.686;2023-10-13T13:11:23;96393.16;;;25.97;42.51
57644;BME280;43474;46.510;6.686;2023-10-13T13:13:49;96397.75;;;25.85;41.88
57644;BME280;43474;46.510;6.686;2023-10-13T13:16:15;96406.72;;;26.10;41.58
57644;BME280;43474;46.510;6.686;2023-10-13T13:18:45;96408.34;;;26.23;44.27
57644;BME280;43474;46.510;6.686;2023-10-13T13:21:11;96369.94;;;25.88;43.98
57644;BME280;43474;46.510;6.686;2023-10-13T13:23:46;96379.22;;;25.99;42.22
57644;BME280;43474;46.510;6.686;2023-10-13T13:26:12;96371.69;;;26.17;41.98
57644;BME280;43474;46.510;6.686;2023-10-13T13:28:42;96386.28;;;26.37;43.26
57644;BME280;43474;46.510;6.686;2023-10-13T13:31:08;96393.09;;;26.43;43.90
57644;BME280;43474;46.510;6.686;2023-10-13T13:33:34;96349.03;;;26.13;40.03
57644;BME280;43474;46.510;6.686;2023-10-13T13:36:06;96398.44;;;26.51;41.52
57644;BME280;43474;46.510;6.686;2023-10-13T13:38:32;96368.72;;;26.34;40.85
57644;BME280;43474;46.510;6.686;2023-10-13T13:41:01;96340.81;;;26.46;43.43
57644;BME280;43474;46.510;6.686;2023-10-13T13:43:29;96354.59;;;26.65;41.51
57644;BME280;43474;46.510;6.686;2023-10-13T13:46:07;96335.09;;;26.39;41.81